Time;durP1;ratioP1;P1;durP2;ratioP2;P2;SDS_P1;SDS_P2;PMS_P1;PMS_P2;Temp;Humidity;BMP_temperature;BMP_pressure;BME280_temperature;BME280_humidity;BME280_pressure;Samples;Min_cycle;Max_cycle;Signal;HPM_P1;HPM_P2
2022/01/23 00:02:08;;;;;;;0.40;0.40;;;5.70;99.90;;;;;;5016131;28;20202;-79
2022/01/23 00:04:35;;;;;;;0.65;0.63;;;5.70;99.90;;;;;;5015731;28;20582;-79
2022/01/23 00:07:04;;;;;;;0.80;0.80;;;5.60;99.90;;;;;;5016145;28;20205;-79
2022/01/23 00:09:32;;;;;;;0.40;0.40;;;5.60;99.90;;;;;;5015691;28;20212;-79
2022/01/23 00:12:04;;;;;;;0.40;0.40;;;5.60;99.90;;;;;;5016183;28;20196;-79
2022/01/23 00:17:18;;;;;;;1.40;0.93;;;5.60;99.90;;;;;;5021287;28;20215;-79
2022/01/23 00:19:46;;;;;;;2.22;1.90;;;5.70;99.90;;;;;;5015400;28;20214;-79
2022/01/23 00:22:13;;;;;;;0.50;0.40;;;5.60;99.90;;;;;;5015676;28;20286;-79
2022/01/23 00:30:26;;;;;;;0.40;0.40;;;5.50;99.90;;;;;;5014738;28;20688;-78
2022/01/23 00:32:53;;;;;;;0.40;0.40;;;5.60;99.90;;;;;;5013956;28;20193;-80
2022/01/23 00:35:20;;;;;;;1.48;1.38;;;5.60;99.90;;;;;;5015375;28;20226;-78
2022/01/23 00:37:47;;;;;;;0.40;0.40;;;5.60;99.90;;;;;;5015237;28;20225;-80
2022/01/23 00:40:15;;;;;;;0.93;0.93;;;5.60;99.90;;;;;;5014279;28;20242;-79
2022/01/23 00:42:42;;;;;;;0.40;0.40;;;5.60;99.90;;;;;;5014081;28;20543;-79
2022/01/23 00:45:26;;;;;;;0.50;0.40;;;5.60;99.90;;;;;;5015293;28;20200;-79
2022/01/23 00:47:56;;;;;;;1.80;1.80;;;5.60;99.90;;;;;;5014668;28;20226;-79
2022/01/23 00:50:23;;;;;;;1.95;1.85;;;5.60;99.90;;;;;;5014141;28;20216;-79
2022/01/23 00:52:50;;;;;;;0.45;0.35;;;5.60;99.90;;;;;;5014357;28;20201;-79
2022/01/23 00:55:18;;;;;;;1.02;1.02;;;5.60;99.90;;;;;;5014618;28;20198;-78
2022/01/23 00:57:44;;;;;;;0.50;0.40;;;5.60;99.90;;;;;;5013940;28;20213;-78
2022/01/23 01:00:12;;;;;;;5.47;5.15;;;5.60;99.90;;;;;;5014366;28;20216;-79
2022/01/23 01:02:39;;;;;;;1.02;1.02;;;5.50;99.90;;;;;;5014761;28;20196;-79
2022/01/23 01:05:07;;;;;;;0.40;0.40;;;5.50;99.90;;;;;;5014556;28;20289;-79
2022/01/23 01:07:34;;;;;;;0.80;0.80;;;5.50;99.90;;;;;;5014427;28;20284;-78
2022/01/23 01:10:07;;;;;;;0.50;0.30;;;5.50;99.90;;;;;;5014093;28;20594;-79
2022/01/23 01:12:40;;;;;;;0.50;0.45;;;5.50;99.90;;;;;;5014238;28;20292;-79
2022/01/23 01:31:40;;;;;;;0.47;0.40;;;5.50;99.90;;;;;;5013793;28;20742;-79
2022/01/23 01:34:14;;;;;;;0.40;0.40;;;5.50;99.90;;;;;;5013610;28;20201;-79
2022/01/23 01:36:47;;;;;;;0.40;0.40;;;5.50;99.90;;;;;;5013410;28;20255;-79
2022/01/23 01:39:16;;;;;;;0.40;0.40;;;5.50;99.90;;;;;;5013209;28;20224;-79
2022/01/23 01:41:44;;;;;;;0.40;0.40;;;5.50;99.90;;;;;;5013001;28;20203;-79
2022/01/23 01:44:13;;;;;;;3.25;2.03;;;5.60;99.90;;;;;;5013370;28;20205;-79
2022/01/23 01:46:40;;;;;;;0.88;0.88;;;5.60;99.90;;;;;;5013210;28;20254;-79
2022/01/23 01:49:09;;;;;;;0.50;0.40;;;5.60;99.90;;;;;;5012889;28;20212;-78
2022/01/23 01:51:36;;;;;;;1.95;1.85;;;5.60;99.90;;;;;;5013651;28;20196;-79
2022/01/23 01:54:10;;;;;;;0.50;0.40;;;5.50;99.90;;;;;;5013722;28;20531;-78
2022/01/23 01:56:47;;;;;;;0.50;0.40;;;5.50;99.90;;;;;;5014188;28;20180;-79
2022/01/23 01:59:34;;;;;;;0.50;0.40;;;5.50;99.90;;;;;;5013038;28;20227;-79
2022/01/23 02:10:23;;;;;;;0.50;0.40;;;5.40;99.90;;;;;;5012852;28;20626;-79
2022/01/23 02:22:29;;;;;;;0.50;0.40;;;5.40;99.90;;;;;;5014265;28;20996;-80
2022/01/23 02:24:59;;;;;;;0.40;0.40;;;5.40;99.90;;;;;;5014370;28;20585;-80
2022/01/23 02:52:13;;;;;;;0.40;0.40;;;5.40;99.90;;;;;;5017611;28;20546;-79
2022/01/23 02:54:53;;;;;;;0.40;0.40;;;5.40;99.90;;;;;;5017567;28;20634;-79
2022/01/23 02:57:32;;;;;;;0.43;0.40;;;5.40;99.90;;;;;;5017546;28;20191;-76
2022/01/23 02:59:59;;;;;;;0.40;0.30;;;5.40;99.90;;;;;;5017008;28;20306;-79
2022/01/23 03:02:34;;;;;;;0.40;0.40;;;5.40;99.90;;;;;;5017276;28;20294;-79
2022/01/23 03:05:02;;;;;;;0.40;0.40;;;5.30;99.90;;;;;;5017020;28;20198;-79
2022/01/23 03:10:19;;;;;;;0.40;0.40;;;5.30;99.90;;;;;;5014743;28;20221;-79
2022/01/23 03:15:33;;;;;;;0.40;0.40;;;5.30;99.90;;;;;;5017421;28;20700;-80
2022/01/23 03:26:23;;;;;;;0.40;0.38;;;5.40;99.90;;;;;;5017715;28;20200;-80
2022/01/23 03:31:40;;;;;;;0.40;0.30;;;5.30;99.90;;;;;;5013333;28;20207;-80
2022/01/23 03:34:07;;;;;;;2.25;2.15;;;5.30;99.90;;;;;;5017886;28;20203;-81
2022/01/23 03:36:34;;;;;;;0.40;0.40;;;5.40;99.90;;;;;;5017207;28;20208;-79
2022/01/23 03:39:01;;;;;;;0.40;0.40;;;5.40;99.90;;;;;;5017110;28;20236;-80
2022/01/23 03:41:29;;;;;;;0.40;0.40;;;5.40;99.90;;;;;;5016736;28;20600;-80
2022/01/23 03:43:57;;;;;;;0.40;0.30;;;5.40;99.90;;;;;;5017317;28;20198;-79
2022/01/23 03:46:36;;;;;;;0.40;0.40;;;5.40;99.90;;;;;;5017781;28;20199;-80
2022/01/23 03:51:49;;;;;;;0.40;0.40;;;5.50;99.90;;;;;;5016603;28;20183;-80
2022/01/23 03:54:15;;;;;;;0.40;0.40;;;5.50;99.90;;;;;;5017054;28;20209;-79
2022/01/23 03:56:44;;;;;;;0.50;0.40;;;5.60;99.90;;;;;;5017891;28;20612;-78
2022/01/23 03:59:11;;;;;;;0.40;0.30;;;5.60;99.90;;;;;;5017052;28;20247;-80
2022/01/23 04:01:37;;;;;;;0.40;0.38;;;5.50;99.90;;;;;;5017819;28;20202;-80
2022/01/23 04:04:14;;;;;;;0.40;0.30;;;5.50;99.90;;;;;;5017385;28;20550;-80
2022/01/23 04:06:41;;;;;;;0.40;0.40;;;5.50;99.90;;;;;;5017464;28;20609;-80
2022/01/23 04:09:07;;;;;;;0.40;0.40;;;5.50;99.90;;;;;;5017028;28;20221;-76
2022/01/23 04:11:34;;;;;;;0.50;0.40;;;5.50;99.90;;;;;;5018322;28;20196;-80
2022/01/23 04:14:07;;;;;;;0.40;0.40;;;5.50;99.90;;;;;;5017843;28;20197;-79
2022/01/23 04:17:06;;;;;;;0.40;0.40;;;5.50;99.90;;;;;;5017654;28;20208;-80
2022/01/23 04:19:40;;;;;;;0.40;0.40;;;5.50;99.90;;;;;;5016201;28;20222;-79
2022/01/23 04:33:31;;;;;;;0.40;0.40;;;5.40;99.90;;;;;;5016680;28;20246;-78
2022/01/23 05:00:36;;;;;;;0.40;0.40;;;5.50;99.90;;;;;;5014875;28;20228;-79
2022/01/23 05:05:58;;;;;;;0.50;0.40;;;5.40;99.90;;;;;;5014571;28;20205;-80
2022/01/23 05:08:27;;;;;;;0.82;0.82;;;5.40;99.90;;;;;;5015393;28;20199;-80
2022/01/23 05:10:58;;;;;;;0.50;0.40;;;5.40;99.90;;;;;;5014834;28;20666;-80
2022/01/23 05:13:24;;;;;;;0.95;0.95;;;5.40;99.90;;;;;;5014648;28;20201;-78
2022/01/23 05:15:51;;;;;;;3.97;3.78;;;5.40;99.90;;;;;;5015260;28;20301;-80
2022/01/23 05:18:19;;;;;;;0.40;0.40;;;5.50;99.90;;;;;;5014949;28;20697;-79
2022/01/23 05:20:49;;;;;;;0.40;0.40;;;5.50;99.90;;;;;;5014596;28;20196;-78
2022/01/23 05:23:16;;;;;;;0.50;0.40;;;5.50;99.90;;;;;;5014881;28;20287;-80
2022/01/23 05:25:43;;;;;;;0.40;0.40;;;5.50;99.90;;;;;;5015179;28;20203;-80
2022/01/23 05:28:09;;;;;;;0.40;0.40;;;5.50;99.90;;;;;;5014598;28;20693;-80
2022/01/23 05:30:37;;;;;;;0.40;0.40;;;5.50;99.90;;;;;;5015211;28;20206;-80
2022/01/23 05:33:04;;;;;;;0.40;0.32;;;5.50;99.90;;;;;;5015170;28;20198;-79
2022/01/23 05:35:32;;;;;;;0.40;0.40;;;5.50;99.90;;;;;;5015440;28;20193;-80
2022/01/23 05:37:59;;;;;;;0.40;0.40;;;5.50;99.90;;;;;;5015746;28;20565;-80
2022/01/23 05:40:28;;;;;;;0.88;0.88;;;5.50;99.90;;;;;;5014621;28;20228;-79
2022/01/23 05:42:55;;;;;;;0.40;0.40;;;5.50;99.90;;;;;;5014403;28;20264;-80
2022/01/23 05:45:22;;;;;;;0.40;0.40;;;5.50;99.90;;;;;;5014958;28;20197;-80
2022/01/23 05:47:49;;;;;;;0.45;0.40;;;5.50;99.90;;;;;;5014208;28;20647;-80
2022/01/23 05:50:15;;;;;;;0.50;0.40;;;5.50;99.90;;;;;;5014360;28;20221;-80
2022/01/23 05:52:43;;;;;;;0.50;0.50;;;5.50;99.90;;;;;;5014489;28;20200;-80
2022/01/23 05:55:12;;;;;;;0.63;0.63;;;5.50;99.90;;;;;;5015039;28;20208;-80
2022/01/23 05:57:38;;;;;;;3.63;1.40;;;5.50;99.90;;;;;;5014113;28;20225;-79
2022/01/23 06:00:06;;;;;;;0.40;0.40;;;5.50;99.90;;;;;;5013496;28;20228;-79
2022/01/23 06:02:33;;;;;;;0.40;0.40;;;5.50;99.90;;;;;;5014483;28;20210;-79
2022/01/23 06:05:00;;;;;;;0.40;0.30;;;5.50;99.90;;;;;;5014775;28;20202;-80
2022/01/23 06:07:26;;;;;;;1.90;1.80;;;5.50;99.90;;;;;;5013839;28;20219;-80
2022/01/23 06:09:54;;;;;;;0.40;0.40;;;5.50;99.90;;;;;;5013994;28;20301;-79
2022/01/23 06:12:21;;;;;;;0.40;0.40;;;5.50;99.90;;;;;;5014625;28;20696;-80
2022/01/23 06:14:48;;;;;;;0.40;0.40;;;5.50;99.90;;;;;;5017992;28;20199;-80
2022/01/23 06:17:14;;;;;;;0.40;0.40;;;5.60;99.90;;;;;;5018429;28;20203;-80
2022/01/23 06:19:41;;;;;;;0.40;0.40;;;5.60;99.90;;;;;;5016968;28;20216;-80
2022/01/23 06:22:08;;;;;;;0.40;0.40;;;5.60;99.90;;;;;;5018256;28;20207;-80
2022/01/23 06:24:37;;;;;;;0.50;0.40;;;5.60;99.90;;;;;;5018559;28;20379;-80
2022/01/23 06:27:06;;;;;;;1.50;1.40;;;5.60;99.90;;;;;;5018057;28;20202;-80
2022/01/23 06:29:33;;;;;;;0.40;0.40;;;5.70;99.90;;;;;;5017617;28;20592;-80
2022/01/23 06:32:02;;;;;;;0.98;0.98;;;5.70;99.90;;;;;;5018025;28;20207;-80
2022/01/23 06:34:30;;;;;;;8.65;3.58;;;5.60;99.90;;;;;;5017984;28;20207;-79
2022/01/23 06:36:57;;;;;;;0.80;0.80;;;5.60;99.90;;;;;;5018538;28;20196;-80
2022/01/23 06:39:25;;;;;;;1.75;1.40;;;5.60;99.90;;;;;;5017354;28;20216;-79
2022/01/23 06:41:52;;;;;;;0.88;0.85;;;5.60;99.90;;;;;;5017498;28;20200;-80
2022/01/23 06:44:21;;;;;;;0.40;0.40;;;5.50;99.90;;;;;;5017605;28;20196;-78
2022/01/23 06:46:48;;;;;;;0.40;0.30;;;5.50;99.90;;;;;;5017543;28;20260;-79
2022/01/23 06:49:15;;;;;;;0.40;0.40;;;5.50;99.90;;;;;;5017836;28;20216;-79
2022/01/23 06:51:43;;;;;;;0.40;0.38;;;5.50;99.90;;;;;;5018001;28;20577;-80
2022/01/23 06:54:10;;;;;;;1.55;1.48;;;5.50;99.90;;;;;;5018232;28;20223;-80
2022/01/23 06:56:36;;;;;;;0.40;0.30;;;5.50;99.90;;;;;;5017026;28;20196;-79
2022/01/23 06:59:04;;;;;;;0.40;0.40;;;5.40;99.90;;;;;;5017316;28;20223;-80
2022/01/23 07:01:32;;;;;;;0.40;0.40;;;5.50;99.90;;;;;;5017903;28;20212;-80
2022/01/23 07:03:58;;;;;;;0.40;0.40;;;5.50;99.90;;;;;;5017847;28;20199;-80
2022/01/23 07:06:25;;;;;;;0.40;0.40;;;5.50;99.90;;;;;;5017105;28;20827;-80
2022/01/23 07:08:52;;;;;;;0.40;0.40;;;5.60;99.90;;;;;;5017664;28;20216;-79
2022/01/23 07:11:19;;;;;;;0.40;0.35;;;5.60;99.90;;;;;;5017571;28;20601;-80
2022/01/23 07:13:45;;;;;;;0.40;0.40;;;5.60;99.90;;;;;;5030148;28;20207;-80
2022/01/23 07:16:12;;;;;;;0.40;0.38;;;5.60;99.90;;;;;;5038812;28;20200;-80
2022/01/23 07:18:40;;;;;;;0.40;0.40;;;5.60;99.90;;;;;;5038924;28;20198;-79
2022/01/23 07:21:07;;;;;;;4.63;3.97;;;5.70;99.90;;;;;;5036813;28;20188;-80
2022/01/23 07:23:34;;;;;;;1.52;1.30;;;5.70;99.90;;;;;;5038730;28;20534;-81
2022/01/23 07:26:00;;;;;;;0.40;0.40;;;5.70;99.90;;;;;;5037551;28;20202;-82
2022/01/23 07:28:37;;;;;;;0.40;0.40;;;5.60;99.90;;;;;;5038156;28;20586;-81
2022/01/23 07:31:05;;;;;;;0.60;0.60;;;5.60;99.90;;;;;;5037092;28;20244;-80
2022/01/23 07:33:35;;;;;;;0.40;0.40;;;5.60;99.90;;;;;;5023357;28;20631;-80
2022/01/23 07:36:04;;;;;;;0.40;0.40;;;5.60;99.90;;;;;;5017639;28;20233;-81
2022/01/23 07:38:31;;;;;;;0.40;0.40;;;5.50;99.90;;;;;;5018022;28;20224;-81
2022/01/23 07:40:58;;;;;;;0.50;0.40;;;5.50;99.90;;;;;;5016999;28;20578;-81
2022/01/23 07:43:25;;;;;;;0.40;0.35;;;5.50;99.90;;;;;;5016734;28;20208;-80
2022/01/23 07:45:52;;;;;;;2.38;2.28;;;5.50;99.90;;;;;;5018485;28;20199;-81
2022/01/23 07:48:18;;;;;;;0.40;0.40;;;5.50;99.90;;;;;;5035231;28;20198;-81
2022/01/23 07:50:45;;;;;;;0.50;0.40;;;5.40;99.90;;;;;;5037822;28;20187;-81
2022/01/23 07:53:13;;;;;;;0.50;0.43;;;5.50;99.90;;;;;;5038192;28;20172;-82
2022/01/23 07:55:40;;;;;;;0.40;0.30;;;5.40;99.90;;;;;;5037610;28;20198;-82
2022/01/23 07:58:12;;;;;;;6.07;5.20;;;5.40;99.90;;;;;;5038169;28;20236;-78
2022/01/23 08:00:40;;;;;;;0.40;0.40;;;5.40;99.90;;;;;;5036909;28;20235;-81
2022/01/23 08:03:07;;;;;;;0.40;0.30;;;5.40;99.90;;;;;;5034204;28;20199;-80
2022/01/23 08:05:34;;;;;;;0.45;0.40;;;5.40;99.90;;;;;;5037060;28;20180;-81
2022/01/23 08:08:01;;;;;;;4.38;4.18;;;5.50;99.90;;;;;;5038036;28;20205;-81
2022/01/23 08:10:29;;;;;;;0.70;0.70;;;5.50;99.90;;;;;;5027124;28;20212;-79
2022/01/23 08:12:56;;;;;;;1.77;1.67;;;5.40;99.90;;;;;;5017967;28;20204;-79
2022/01/23 08:15:22;;;;;;;0.95;0.93;;;5.40;99.90;;;;;;5018031;28;20197;-81
2022/01/23 08:17:49;;;;;;;0.50;0.40;;;5.40;99.90;;;;;;5018116;28;20208;-80
2022/01/23 08:20:16;;;;;;;0.50;0.50;;;5.30;99.90;;;;;;5017445;28;20219;-80
2022/01/23 08:22:43;;;;;;;0.50;0.40;;;5.30;99.90;;;;;;5017520;28;20207;-80
2022/01/23 08:25:10;;;;;;;0.40;0.40;;;5.30;99.90;;;;;;5018051;28;20203;-79
2022/01/23 08:27:38;;;;;;;5.70;2.88;;;5.30;99.90;;;;;;5017910;28;20195;-81
2022/01/23 08:30:06;;;;;;;4.32;3.38;;;5.40;99.90;;;;;;5018967;28;20220;-79
2022/01/23 08:32:33;;;;;;;0.40;0.30;;;5.50;99.90;;;;;;5018841;28;20196;-79
2022/01/23 08:35:00;;;;;;;2.15;1.70;;;5.60;99.90;;;;;;5018113;28;20200;-79
2022/01/23 08:37:26;;;;;;;2.63;2.42;;;5.80;99.90;;;;;;5018233;28;20201;-80
2022/01/23 08:39:53;;;;;;;0.50;0.50;;;5.80;99.90;;;;;;5017857;28;20218;-80
2022/01/23 08:42:20;;;;;;;0.80;0.75;;;5.90;99.90;;;;;;5017572;28;20260;-80
2022/01/23 08:44:50;;;;;;;0.40;0.35;;;5.90;99.90;;;;;;5020416;28;20753;-80
2022/01/23 08:47:18;;;;;;;0.50;0.50;;;5.90;99.90;;;;;;5020031;28;20201;-80
2022/01/23 08:49:47;;;;;;;0.50;0.40;;;5.90;99.90;;;;;;5019708;28;20589;-81
2022/01/23 08:52:17;;;;;;;1.02;1.02;;;6.00;99.90;;;;;;5019036;28;20621;-76
2022/01/23 08:54:45;;;;;;;0.93;0.93;;;6.00;99.90;;;;;;5016406;28;20247;-81
2022/01/23 08:57:12;;;;;;;0.40;0.38;;;5.90;99.90;;;;;;5016339;28;20202;-81
2022/01/23 08:59:39;;;;;;;0.65;0.65;;;6.00;99.90;;;;;;5016565;28;20217;-79
2022/01/23 09:02:07;;;;;;;0.47;0.40;;;6.10;99.90;;;;;;5015723;28;20256;-81
2022/01/23 09:04:34;;;;;;;0.40;0.40;;;6.20;99.90;;;;;;5015732;28;20202;-81
2022/01/23 09:07:00;;;;;;;0.40;0.40;;;6.20;99.90;;;;;;5016966;28;20196;-80
2022/01/23 09:09:31;;;;;;;0.40;0.40;;;6.20;99.90;;;;;;5015673;28;20214;-81
2022/01/23 09:12:03;;;;;;;0.40;0.40;;;6.40;99.90;;;;;;5016536;28;20294;-80
2022/01/23 09:14:31;;;;;;;0.40;0.30;;;6.40;99.90;;;;;;5016145;28;20578;-79
2022/01/23 09:16:58;;;;;;;0.40;0.40;;;6.40;99.90;;;;;;5016662;28;20199;-80
2022/01/23 09:19:27;;;;;;;0.47;0.40;;;6.50;99.90;;;;;;5015609;28;20217;-80
2022/01/23 09:21:55;;;;;;;0.50;0.50;;;6.50;99.90;;;;;;5016637;28;20209;-81
2022/01/23 09:24:25;;;;;;;0.50;0.40;;;6.50;99.90;;;;;;5016079;28;20206;-80
2022/01/23 09:26:54;;;;;;;0.40;0.40;;;6.50;99.90;;;;;;5016403;28;20729;-80
2022/01/23 09:29:30;;;;;;;0.98;0.98;;;6.50;99.90;;;;;;5015494;28;20230;-79
2022/01/23 09:31:57;;;;;;;0.40;0.40;;;6.50;99.90;;;;;;5017347;28;20203;-79
2022/01/23 09:34:28;;;;;;;0.50;0.40;;;6.40;99.90;;;;;;5016233;28;20220;-79
2022/01/23 09:36:57;;;;;;;3.22;3.10;;;6.40;99.90;;;;;;5015832;28;20198;-81
2022/01/23 09:39:25;;;;;;;0.50;0.40;;;6.40;99.90;;;;;;5014898;28;20214;-80
2022/01/23 09:41:59;;;;;;;0.40;0.40;;;6.40;99.90;;;;;;5014674;28;20205;-81
2022/01/23 09:44:30;;;;;;;0.50;0.40;;;6.40;99.90;;;;;;5016123;28;20215;-81
2022/01/23 09:46:57;;;;;;;3.42;2.90;;;6.40;99.90;;;;;;5016453;28;20189;-80
2022/01/23 09:49:30;;;;;;;0.40;0.40;;;6.30;99.90;;;;;;5014127;28;20298;-81
2022/01/23 09:52:01;;;;;;;2.70;1.55;;;6.30;99.90;;;;;;5014717;28;20205;-81
2022/01/23 09:54:31;;;;;;;4.35;2.00;;;6.30;99.90;;;;;;5015889;28;20578;-79
2022/01/23 09:57:00;;;;;;;3.08;2.78;;;6.30;99.90;;;;;;5015943;28;20199;-81
2022/01/23 09:59:29;;;;;;;10.90;4.70;;;6.30;99.90;;;;;;5015183;28;20214;-81
2022/01/23 10:01:56;;;;;;;1.85;1.77;;;6.30;99.90;;;;;;5015159;28;20636;-82
2022/01/23 10:04:23;;;;;;;0.50;0.40;;;6.30;99.90;;;;;;5015040;28;20266;-81
2022/01/23 10:06:52;;;;;;;0.50;0.40;;;6.30;99.90;;;;;;5015372;28;20212;-81
2022/01/23 10:09:21;;;;;;;14.18;3.35;;;6.30;99.90;;;;;;5014918;28;20251;-81
2022/01/23 10:11:50;;;;;;;0.40;0.40;;;6.40;99.90;;;;;;5015038;28;20195;-80
2022/01/23 10:14:17;;;;;;;1.67;1.58;;;6.40;99.90;;;;;;5014574;28;20594;-77
2022/01/23 10:16:45;;;;;;;3.55;3.35;;;6.50;99.90;;;;;;5014922;28;20253;-80
2022/01/23 10:19:12;;;;;;;3.53;3.33;;;6.50;99.90;;;;;;5014269;28;20215;-79
2022/01/23 10:21:39;;;;;;;0.40;0.38;;;6.50;99.90;;;;;;5013653;28;20218;-80
2022/01/23 10:24:09;;;;;;;1.25;1.15;;;6.50;99.90;;;;;;5014182;28;20209;-80
2022/01/23 10:26:44;;;;;;;0.50;0.40;;;6.50;99.90;;;;;;5014428;28;20204;-80
2022/01/23 10:29:19;;;;;;;0.47;0.40;;;6.60;99.90;;;;;;5014429;28;20223;-76
2022/01/23 10:32:08;;;;;;;1.88;1.77;;;6.70;99.90;;;;;;5015189;28;20218;-79
2022/01/23 10:34:50;;;;;;;0.50;0.40;;;6.80;99.90;;;;;;5014868;28;20669;-79
2022/01/23 10:37:31;;;;;;;15.40;14.20;;;6.80;99.90;;;;;;5014603;28;20208;-80
2022/01/23 10:40:00;;;;;;;7.95;3.65;;;6.80;99.90;;;;;;5015722;28;20231;-79
2022/01/23 10:48:27;;;;;;;0.63;0.63;;;6.90;99.90;;;;;;5015746;28;20244;-81
2022/01/23 10:51:12;;;;;;;3.13;3.03;;;6.90;99.90;;;;;;5015686;28;20180;-80
2022/01/23 10:54:00;;;;;;;0.50;0.40;;;6.90;99.90;;;;;;5015803;28;20203;-80
2022/01/23 10:56:30;;;;;;;4.10;0.77;;;6.90;99.90;;;;;;5016073;28;20641;-80
2022/01/23 10:58:58;;;;;;;0.50;0.40;;;6.90;99.90;;;;;;5015572;28;20227;-81
2022/01/23 11:01:25;;;;;;;3.97;2.17;;;6.90;99.90;;;;;;5019373;28;20250;-79
2022/01/23 11:04:04;;;;;;;0.50;0.50;;;6.90;99.90;;;;;;5019126;28;20198;-80
2022/01/23 11:06:31;;;;;;;0.50;0.40;;;6.90;99.90;;;;;;5019108;28;20672;-80
2022/01/23 11:09:08;;;;;;;2.05;1.80;;;6.90;99.90;;;;;;5019451;28;20738;-78
2022/01/23 11:11:45;;;;;;;1.88;1.77;;;6.90;99.90;;;;;;5019497;28;20179;-79
2022/01/23 11:19:46;;;;;;;0.40;0.40;;;6.90;99.90;;;;;;5018987;28;20261;-80
2022/01/23 11:22:17;;;;;;;0.40;0.40;;;7.00;99.90;;;;;;5020330;28;20258;-81
2022/01/23 11:24:45;;;;;;;0.40;0.40;;;7.10;99.90;;;;;;5019666;28;20184;-81
2022/01/23 11:27:13;;;;;;;2.38;2.28;;;7.20;99.90;;;;;;5019550;28;20294;-81
2022/01/23 11:29:56;;;;;;;6.28;3.33;;;7.30;99.90;;;;;;5018126;28;20231;-80
2022/01/23 11:32:25;;;;;;;0.93;0.93;;;7.30;99.90;;;;;;5019885;28;20231;-80
2022/01/23 11:35:02;;;;;;;7.13;1.67;;;7.30;99.90;;;;;;5019696;28;20363;-80
2022/01/23 11:37:30;;;;;;;2.10;1.15;;;7.30;99.90;;;;;;5018845;28;20253;-81
2022/01/23 11:40:03;;;;;;;0.50;0.40;;;7.20;99.90;;;;;;5018952;28;20229;-81
2022/01/23 11:53:44;;;;;;;3.55;2.35;;;7.20;99.90;;;;;;4976797;28;20195;-79
2022/01/23 11:54:09;;;;;;;2.08;1.98;;;7.10;99.90;;;;;;5012805;28;20289;-80
2022/01/23 11:56:43;;;;;;;4.47;4.23;;;7.00;99.90;;;;;;5019349;28;20575;-80
2022/01/23 11:59:33;;;;;;;2.55;2.35;;;7.00;99.90;;;;;;5017612;28;20593;-77
2022/01/23 12:02:34;;;;;;;1.70;1.60;;;7.00;99.90;;;;;;5018019;28;20696;-80
2022/01/23 12:05:24;;;;;;;0.50;0.30;;;6.90;99.90;;;;;;5018606;28;20221;-80
2022/01/23 12:08:32;;;;;;;1.25;1.25;;;6.90;99.90;;;;;;5018488;28;20642;-80
2022/01/23 12:11:35;;;;;;;3.17;2.13;;;6.90;99.90;;;;;;5016897;28;20198;-80
2022/01/23 12:17:13;;;;;;;1.73;1.63;;;6.90;99.90;;;;;;5017489;28;20244;-78
2022/01/23 12:19:49;;;;;;;1.50;1.40;;;7.00;99.90;;;;;;5017868;28;20218;-79
2022/01/23 12:22:28;;;;;;;2.40;2.03;;;7.00;99.90;;;;;;5019631;28;20211;-75
2022/01/23 12:24:56;;;;;;;0.93;0.93;;;7.00;99.90;;;;;;5017395;28;20318;-80
2022/01/23 12:27:26;;;;;;;2.95;2.75;;;7.10;99.90;;;;;;5017184;28;20211;-75
2022/01/23 12:29:54;;;;;;;0.90;0.90;;;7.20;99.90;;;;;;5017450;28;20235;-79
2022/01/23 12:32:26;;;;;;;0.60;0.60;;;7.30;99.90;;;;;;5017945;28;20206;-81
2022/01/23 12:34:56;;;;;;;1.92;1.83;;;7.30;99.90;;;;;;5017967;28;20206;-80
2022/01/23 12:37:23;;;;;;;1.73;1.63;;;7.40;99.90;;;;;;5017488;28;20191;-77
2022/01/23 12:40:23;;;;;;;1.23;1.17;;;7.40;99.90;;;;;;5017215;28;20241;-81
2022/01/23 12:43:04;;;;;;;6.20;2.08;;;7.50;99.90;;;;;;5017423;28;20183;-81
2022/01/23 12:45:55;;;;;;;0.50;0.50;;;7.50;99.90;;;;;;5017580;28;20656;-80
2022/01/23 12:48:49;;;;;;;0.50;0.50;;;7.60;99.90;;;;;;5017180;28;20184;-80
2022/01/23 12:51:38;;;;;;;0.50;0.40;;;7.70;99.90;;;;;;5017633;28;20195;-79
2022/01/23 12:54:17;;;;;;;0.50;0.40;;;7.70;99.90;;;;;;5017817;28;20578;-80
2022/01/23 12:56:45;;;;;;;0.85;0.85;;;7.70;99.90;;;;;;5018062;28;20625;-80
2022/01/23 12:59:20;;;;;;;0.50;0.40;;;7.80;99.90;;;;;;5016603;28;20222;-78
2022/01/23 13:01:48;;;;;;;5.43;5.07;;;7.80;99.90;;;;;;5017138;28;20254;-81
2022/01/23 13:04:17;;;;;;;0.50;0.40;;;7.80;99.90;;;;;;5017916;28;20199;-79
2022/01/23 13:06:50;;;;;;;0.50;0.40;;;7.80;99.90;;;;;;5017290;28;20724;-81
2022/01/23 13:09:23;;;;;;;0.65;0.65;;;7.90;99.90;;;;;;5016729;28;20223;-81
2022/01/23 13:12:09;;;;;;;0.50;0.50;;;7.80;99.90;;;;;;5017407;28;20179;-81
2022/01/23 13:14:53;;;;;;;2.88;0.95;;;7.80;99.90;;;;;;5017504;28;20282;-79
2022/01/23 13:17:44;;;;;;;0.50;0.40;;;7.70;99.90;;;;;;5017413;28;20209;-81
2022/01/23 13:32:02;;;;;;;0.50;0.40;;;7.70;99.90;;;;;;5015480;28;20188;-81
2022/01/23 13:34:32;;;;;;;0.85;0.85;;;7.70;99.90;;;;;;5016147;28;20251;-80
2022/01/23 13:37:04;;;;;;;0.50;0.40;;;7.70;99.90;;;;;;5016659;28;20183;-81
2022/01/23 13:39:34;;;;;;;1.45;1.35;;;7.70;99.90;;;;;;5016730;28;20578;-80
2022/01/23 13:42:34;;;;;;;0.50;0.40;;;7.60;99.90;;;;;;5016533;28;20231;-81
2022/01/23 13:48:08;;;;;;;0.50;0.40;;;7.50;99.90;;;;;;5017239;28;20265;-80
2022/01/23 13:53:48;;;;;;;0.50;0.40;;;7.50;99.90;;;;;;4999005;28;20202;-81
2022/01/23 13:59:08;;;;;;;0.50;0.40;;;7.70;99.90;;;;;;5016078;28;20234;-80
2022/01/23 14:01:48;;;;;;;0.50;0.40;;;7.70;99.90;;;;;;5016978;28;20227;-81
2022/01/23 14:04:16;;;;;;;1.48;1.38;;;7.70;99.90;;;;;;5016236;28;20203;-81
2022/01/23 14:06:42;;;;;;;0.50;0.40;;;7.60;99.90;;;;;;5016690;28;20195;-81
2022/01/23 14:09:13;;;;;;;3.20;1.83;;;7.60;99.90;;;;;;5015824;28;20230;-81
2022/01/23 14:11:40;;;;;;;0.68;0.68;;;7.70;99.90;;;;;;5016488;28;20464;-79
2022/01/23 14:14:15;;;;;;;28.58;5.20;;;7.60;99.90;;;;;;5016208;28;20202;-80
2022/01/23 14:16:43;;;;;;;0.50;0.40;;;7.60;99.90;;;;;;5015463;28;20204;-80
2022/01/23 14:19:20;;;;;;;0.50;0.40;;;7.60;99.90;;;;;;5016584;28;20245;-80
2022/01/23 14:21:49;;;;;;;0.50;0.40;;;7.50;99.90;;;;;;5016604;28;20218;-81
2022/01/23 14:24:26;;;;;;;0.50;0.40;;;7.50;99.90;;;;;;5016380;28;20202;-81
2022/01/23 14:27:06;;;;;;;2.05;1.95;;;7.50;99.90;;;;;;5016488;28;20183;-80
2022/01/23 14:29:35;;;;;;;0.50;0.40;;;7.50;99.90;;;;;;5014879;28;20677;-80
2022/01/23 14:32:12;;;;;;;0.50;0.40;;;7.40;99.90;;;;;;5016927;28;20206;-81
2022/01/23 14:34:41;;;;;;;0.50;0.40;;;7.40;99.90;;;;;;5017153;28;20194;-80
2022/01/23 14:37:08;;;;;;;0.50;0.40;;;7.40;99.90;;;;;;5019841;28;20193;-80
2022/01/23 14:39:37;;;;;;;0.82;0.82;;;7.40;99.90;;;;;;5019536;28;20225;-81
2022/01/23 14:42:15;;;;;;;0.50;0.40;;;7.40;99.90;;;;;;5019056;28;20221;-81
2022/01/23 14:44:42;;;;;;;1.02;1.02;;;7.40;99.90;;;;;;5019383;28;20186;-81
2022/01/23 14:47:10;;;;;;;0.50;0.40;;;7.30;99.90;;;;;;5020634;28;20202;-79
2022/01/23 14:49:39;;;;;;;2.35;2.25;;;7.30;99.90;;;;;;5019205;28;20632;-80
2022/01/23 14:52:10;;;;;;;0.50;0.40;;;7.30;99.90;;;;;;5019939;28;20285;-80
2022/01/23 14:54:38;;;;;;;0.70;0.70;;;7.20;99.90;;;;;;5019818;28;20202;-80
2022/01/23 14:57:07;;;;;;;3.22;0.98;;;7.20;99.90;;;;;;5019488;28;20202;-81
2022/01/23 14:59:35;;;;;;;2.15;2.05;;;7.20;99.90;;;;;;5018674;28;20239;-80
2022/01/23 15:02:05;;;;;;;2.67;1.40;;;7.10;99.90;;;;;;5019235;28;20228;-80
2022/01/23 15:04:39;;;;;;;0.50;0.40;;;7.20;99.90;;;;;;5019564;28;20203;-79
2022/01/23 15:07:07;;;;;;;0.50;0.40;;;7.10;99.90;;;;;;5018614;28;20203;-80
2022/01/23 15:09:34;;;;;;;0.98;0.98;;;7.10;99.90;;;;;;5018444;28;20246;-80
2022/01/23 15:12:03;;;;;;;0.50;0.40;;;7.10;99.90;;;;;;5019718;28;20205;-80
2022/01/23 15:14:29;;;;;;;0.50;0.40;;;7.10;99.90;;;;;;5019436;28;20607;-81
2022/01/23 15:16:56;;;;;;;3.75;2.08;;;7.10;99.90;;;;;;5018780;28;20214;-81
2022/01/23 15:19:24;;;;;;;0.77;0.77;;;7.00;99.90;;;;;;5018051;28;20228;-80
2022/01/23 15:21:51;;;;;;;2.83;2.55;;;7.00;99.90;;;;;;5018871;28;20239;-80
2022/01/23 15:24:17;;;;;;;0.85;0.85;;;6.90;99.90;;;;;;5018969;28;20192;-81
2022/01/23 15:26:44;;;;;;;0.50;0.40;;;6.80;99.90;;;;;;5018845;28;20200;-80
2022/01/23 15:29:12;;;;;;;0.50;0.50;;;6.80;99.90;;;;;;5018047;28;20226;-80
2022/01/23 15:31:40;;;;;;;0.50;0.40;;;6.80;99.90;;;;;;5019715;28;20199;-81
2022/01/23 15:34:07;;;;;;;0.50;0.47;;;6.70;99.90;;;;;;5019184;28;20198;-80
2022/01/23 15:36:34;;;;;;;0.50;0.40;;;6.70;99.90;;;;;;5018648;28;20205;-81
2022/01/23 15:39:01;;;;;;;0.50;0.40;;;6.70;99.90;;;;;;5018575;28;20241;-80
2022/01/23 15:41:28;;;;;;;0.50;0.50;;;6.70;99.90;;;;;;5017589;28;20309;-80
2022/01/23 15:43:55;;;;;;;0.50;0.40;;;6.80;99.90;;;;;;5018631;28;20221;-81
2022/01/23 15:46:23;;;;;;;0.50;0.40;;;6.70;99.90;;;;;;5018590;28;20203;-80
2022/01/23 15:48:50;;;;;;;0.50;0.40;;;6.70;99.90;;;;;;5018467;28;20225;-80
2022/01/23 15:51:17;;;;;;;0.50;0.40;;;6.70;99.90;;;;;;5018319;28;20205;-78
2022/01/23 15:53:44;;;;;;;0.50;0.40;;;6.70;99.90;;;;;;5018338;28;20222;-79
2022/01/23 15:56:11;;;;;;;0.50;0.40;;;6.70;99.90;;;;;;5018257;28;20203;-82
2022/01/23 15:58:37;;;;;;;0.60;0.40;;;6.60;99.90;;;;;;5018372;28;20617;-81
2022/01/23 16:01:04;;;;;;;0.50;0.40;;;6.50;99.90;;;;;;5018118;28;20313;-79
2022/01/23 16:03:33;;;;;;;0.50;0.40;;;6.40;99.90;;;;;;5017194;28;20220;-81
2022/01/23 16:06:00;;;;;;;0.88;0.88;;;6.30;99.90;;;;;;5019148;28;20194;-80